< < Back
Terminal Aerodrome Forecast


Current Version              Previous Versions:   1  2  3  4  5  6  7  8  9  

Terminal Aerodrome Forecast

337
FTUS44 KMOB 221700 RRA
TAFMOB
TAF
KMOB 221755Z 2218/2318 11011KT P6SM FEW040 FEW070 SCT230
     FM230100 09011G16KT P6SM OVC015
     FM230900 08013G17KT 5SM -SHRA BR OVC007
     FM231100 12013G23KT 4SM TSRA OVC004CB=

Latest METAR

853
SAUS80 KWBC 230300
MTRMOB
METAR KMOB 230256Z 07006KT 3SM BR BKN008 OVC015 15/15 A3005 RMK AO2
RAE44 SLP175 P0000 60000 T01500150 56014


USA.gov is the U.S. government's official web portal to all federal, state and local government web resources and services.